createdAt,value
2023-03-16T00:03:21.711Z,43.60
2023-03-16T00:08:29.694Z,44.20
2023-03-16T00:13:37.595Z,43.95
2023-03-16T00:18:44.493Z,44.93
2023-03-16T00:23:53.668Z,45.92
2023-03-16T00:29:00.744Z,43.87
2023-03-16T00:34:08.564Z,45.53
2023-03-16T00:39:16.064Z,44.90
2023-03-16T00:49:29.885Z,44.30
2023-03-16T00:54:36.981Z,48.10
2023-03-16T00:59:44.116Z,44.90
2023-03-16T01:04:52.616Z,44.42
2023-03-16T01:09:59.367Z,45.27
2023-03-16T01:15:07.250Z,45.30
2023-03-16T01:20:16.800Z,44.40
2023-03-16T01:25:24.429Z,44.20
2023-03-16T01:30:34.333Z,45.07
2023-03-16T01:35:42.501Z,46.00
2023-03-16T01:40:52.359Z,45.17
2023-03-16T01:46:14.256Z,45.43
2023-03-16T01:51:57.351Z,46.87
2023-03-16T01:57:10.723Z,48.53
2023-03-16T02:02:23.877Z,47.37
2023-03-16T02:07:34.912Z,44.67
2023-03-16T02:12:43.131Z,43.73
2023-03-16T02:17:52.131Z,43.60
2023-03-16T02:22:59.878Z,44.30
2023-03-16T02:28:11.279Z,42.70
2023-03-16T02:33:20.413Z,43.50
2023-03-16T02:38:27.534Z,42.10
2023-03-16T02:43:37.104Z,42.38
2023-03-16T02:48:52.089Z,42.87
2023-03-16T02:54:00.582Z,43.13
2023-03-16T02:59:08.721Z,42.73
2023-03-16T03:04:16.606Z,41.83
2023-03-16T03:09:23.657Z,42.63
2023-03-16T03:19:37.729Z,41.55
2023-03-16T03:24:44.538Z,43.27
2023-03-16T03:29:51.205Z,42.75
2023-03-16T03:34:58.212Z,42.78
2023-03-16T03:40:06.172Z,42.53
2023-03-16T03:45:14.931Z,45.03
2023-03-16T03:50:21.954Z,42.97
2023-03-16T03:55:29.158Z,52.17
2023-03-16T04:00:36.451Z,48.27
2023-03-16T04:05:43.248Z,48.53
2023-03-16T04:10:51.339Z,48.10
2023-03-16T04:16:03.637Z,44.47
2023-03-16T04:21:17.734Z,42.83
2023-03-16T04:26:25.903Z,43.42
2023-03-16T04:31:33.124Z,43.28
2023-03-16T04:41:48.622Z,46.40
2023-03-16T04:46:56.809Z,44.53
2023-03-16T04:52:05.033Z,44.27
2023-03-16T04:57:12.751Z,48.03
2023-03-16T05:02:20.920Z,46.13
2023-03-16T05:07:27.804Z,43.85
2023-03-16T05:12:35.441Z,44.20
2023-03-16T05:17:43.496Z,46.93
2023-03-16T05:22:52.020Z,46.83
2023-03-16T05:28:00.250Z,45.10
2023-03-16T05:33:07.861Z,45.20
2023-03-16T05:38:16.685Z,44.27
2023-03-16T05:43:24.234Z,46.33
2023-03-16T05:48:32.049Z,44.00
2023-03-16T05:53:39.083Z,49.13
2023-03-16T05:58:48.098Z,48.10
2023-03-16T06:03:55.934Z,45.00
2023-03-16T06:09:02.523Z,44.30
2023-03-16T06:14:09.302Z,43.87
2023-03-16T06:19:16.225Z,44.35
2023-03-16T06:24:23.750Z,44.08
2023-03-16T06:29:31.713Z,50.10
2023-03-16T06:34:38.553Z,49.33
2023-03-16T06:39:45.303Z,52.00
2023-03-16T06:44:53.996Z,52.30
2023-03-16T06:50:01.211Z,53.90
2023-03-16T06:55:10.064Z,52.63
2023-03-16T07:00:18.977Z,53.67
2023-03-16T07:05:25.488Z,55.83
2023-03-16T07:10:35.009Z,57.93
2023-03-16T07:15:44.867Z,56.50
2023-03-16T07:20:56.640Z,54.73
2023-03-16T07:26:05.113Z,52.80
2023-03-16T07:31:16.264Z,51.80
2023-03-16T07:36:27.687Z,48.30
2023-03-16T07:41:35.270Z,48.33
2023-03-16T07:46:45.378Z,47.77
2023-03-16T07:52:01.993Z,47.97
2023-03-16T07:57:12.152Z,48.13
2023-03-16T08:02:22.440Z,46.83
2023-03-16T08:07:29.872Z,46.93
2023-03-16T08:12:47.806Z,47.00
2023-03-16T08:17:56.823Z,47.43
2023-03-16T08:23:06.791Z,47.33
2023-03-16T08:28:14.303Z,47.83
2023-03-16T08:33:23.390Z,47.23
2023-03-16T08:38:32.483Z,47.97
2023-03-16T08:43:40.954Z,48.50
2023-03-16T08:48:49.616Z,48.40
2023-03-16T08:54:02.224Z,48.83
2023-03-16T08:59:19.932Z,48.45
2023-03-16T09:04:23.810Z,49.63
2023-03-16T09:09:32.850Z,48.57
2023-03-16T09:14:59.669Z,50.55
2023-03-16T09:20:22.426Z,49.57
2023-03-16T09:25:22.125Z,49.33
2023-03-16T09:30:33.082Z,49.88
2023-03-16T09:35:43.673Z,49.90
2023-03-16T09:41:39.298Z,49.80
2023-03-16T09:46:49.732Z,50.07
2023-03-16T09:52:17.703Z,50.37
2023-03-16T09:57:34.652Z,49.30
2023-03-16T10:03:18.057Z,49.53
2023-03-16T10:08:41.058Z,50.03
2023-03-16T10:14:03.046Z,49.70
2023-03-16T10:19:25.743Z,50.10
2023-03-16T10:25:35.768Z,50.40
2023-03-16T10:30:56.421Z,50.10
2023-03-16T10:36:36.790Z,50.40
2023-03-16T10:41:51.296Z,49.60
2023-03-16T10:47:05.089Z,49.80
2023-03-16T10:52:41.040Z,49.23
2023-03-16T10:57:57.079Z,49.60
2023-03-16T11:03:29.563Z,49.73
2023-03-16T11:08:41.611Z,50.78
2023-03-16T11:13:50.685Z,50.00
2023-03-16T11:19:17.290Z,50.50
2023-03-16T11:24:47.835Z,51.10
2023-03-16T11:30:24.364Z,51.37
2023-03-16T11:36:10.271Z,50.37
2023-03-16T11:41:29.184Z,52.10
2023-03-16T11:46:45.413Z,50.90
2023-03-16T11:52:32.682Z,51.53
2023-03-16T11:57:49.597Z,50.90
2023-03-16T12:03:27.226Z,51.00
2023-03-16T12:08:50.136Z,54.47
2023-03-16T12:14:25.352Z,51.13
2023-03-16T12:19:57.410Z,51.50
2023-03-16T12:25:27.783Z,51.40
2023-03-16T12:30:45.828Z,51.15
2023-03-16T12:36:05.283Z,51.30
2023-03-16T12:41:33.690Z,51.07
2023-03-16T12:46:53.770Z,51.45
2023-03-16T12:52:11.419Z,50.83
2023-03-16T12:57:27.571Z,50.77
2023-03-16T13:02:52.476Z,51.33
2023-03-16T13:08:13.878Z,51.20
2023-03-16T13:13:24.841Z,50.73
2023-03-16T13:18:39.831Z,50.60
2023-03-16T13:24:15.977Z,51.33
2023-03-16T13:29:32.154Z,51.57
2023-03-16T13:34:51.275Z,51.27
2023-03-16T13:45:18.100Z,51.28
2023-03-16T13:50:33.829Z,52.17
2023-03-16T13:55:49.624Z,51.90
2023-03-16T14:01:25.469Z,52.67
2023-03-16T14:06:35.339Z,51.33
2023-03-16T14:11:43.274Z,51.43
2023-03-16T14:16:50.485Z,51.40
2023-03-16T14:21:57.795Z,51.07
2023-03-16T14:27:29.735Z,51.57
2023-03-16T14:32:38.498Z,51.30
2023-03-16T14:37:47.683Z,51.60
2023-03-16T14:42:57.709Z,50.93
2023-03-16T14:48:19.332Z,51.20
2023-03-16T14:53:29.382Z,51.60
2023-03-16T14:58:37.762Z,51.20
2023-03-16T15:03:48.035Z,51.67
2023-03-16T15:08:57.122Z,53.57
2023-03-16T15:14:07.848Z,53.80
2023-03-16T15:19:15.614Z,52.96
2023-03-16T15:24:22.428Z,53.73
2023-03-16T15:29:29.177Z,52.15
2023-03-16T15:34:36.226Z,52.13
2023-03-16T15:39:44.576Z,51.97
2023-03-16T15:44:51.175Z,51.90
2023-03-16T15:55:04.966Z,50.50
2023-03-16T16:00:31.110Z,49.97
2023-03-16T16:05:37.880Z,50.40
2023-03-16T16:10:45.845Z,49.93
2023-03-16T16:15:54.658Z,50.80
2023-03-16T16:21:04.203Z,49.57
2023-03-16T16:26:41.513Z,51.80
2023-03-16T16:31:36.740Z,49.83
2023-03-16T16:41:54.988Z,49.80
2023-03-16T16:47:01.895Z,50.13
2023-03-16T16:52:11.883Z,49.90
2023-03-16T16:57:21.361Z,50.80
2023-03-16T17:02:42.191Z,51.03
2023-03-16T17:07:50.121Z,51.63
2023-03-16T17:12:58.784Z,50.83
2023-03-16T17:18:15.042Z,58.07
2023-03-16T17:23:34.378Z,53.53
2023-03-16T17:28:48.964Z,53.00
2023-03-16T17:33:58.085Z,52.83
2023-03-16T17:39:06.838Z,52.33
2023-03-16T17:44:16.692Z,53.43
2023-03-16T17:49:25.404Z,53.67
2023-03-16T17:54:32.914Z,54.47
2023-03-16T17:59:40.069Z,52.85
2023-03-16T18:04:48.484Z,52.45
2023-03-16T18:09:56.082Z,53.30
2023-03-16T18:15:03.718Z,53.67
2023-03-16T18:20:29.828Z,56.10
2023-03-16T18:25:40.648Z,50.80
2023-03-16T18:30:52.843Z,50.47
2023-03-16T18:36:08.264Z,51.50
2023-03-16T18:41:23.974Z,51.13
2023-03-16T18:46:37.581Z,50.43
2023-03-16T18:51:48.893Z,51.03
2023-03-16T18:56:59.234Z,52.10
2023-03-16T19:02:09.045Z,51.33
2023-03-16T19:07:22.036Z,50.20
2023-03-16T19:12:30.910Z,52.00
2023-03-16T19:17:39.308Z,49.67
2023-03-16T19:22:49.354Z,51.97
2023-03-16T19:27:57.000Z,50.83
2023-03-16T19:33:07.571Z,51.17
2023-03-16T19:38:18.357Z,80.20
2023-03-16T19:43:27.352Z,73.05
2023-03-16T19:48:35.566Z,54.83
2023-03-16T19:53:42.936Z,52.30
2023-03-16T19:58:53.696Z,51.97
2023-03-16T20:04:02.211Z,51.30
2023-03-16T20:09:09.199Z,53.43
2023-03-16T20:14:32.253Z,51.63
2023-03-16T20:19:40.103Z,51.73
2023-03-16T20:24:49.326Z,49.90
2023-03-16T20:29:57.297Z,49.83
2023-03-16T20:35:04.921Z,49.80
2023-03-16T20:40:14.861Z,50.20
2023-03-16T20:45:26.195Z,48.03
2023-03-16T20:50:34.745Z,49.65
2023-03-16T20:55:42.173Z,46.03
2023-03-16T21:00:54.780Z,48.97
2023-03-16T21:06:01.989Z,46.83
2023-03-16T21:11:13.632Z,45.92
2023-03-16T21:16:23.667Z,46.90
2023-03-16T21:21:30.965Z,46.63
2023-03-16T21:26:39.023Z,45.43
2023-03-16T21:31:46.189Z,46.87
2023-03-16T21:36:53.598Z,47.80
2023-03-16T21:42:00.898Z,48.57
2023-03-16T21:47:28.783Z,45.92
2023-03-16T21:57:42.468Z,51.20
2023-03-16T22:02:53.528Z,47.80
2023-03-16T22:08:02.416Z,52.87
2023-03-16T22:13:12.288Z,55.47
2023-03-16T22:18:29.122Z,53.93
2023-03-16T22:23:38.382Z,53.13
2023-03-16T22:28:47.886Z,50.27
2023-03-16T22:33:57.376Z,48.93
2023-03-16T22:39:09.108Z,47.93
2023-03-16T22:44:23.099Z,48.80
2023-03-16T22:49:30.752Z,45.63
2023-03-16T22:54:39.087Z,46.95
2023-03-16T22:59:47.198Z,48.40
2023-03-16T23:04:53.969Z,48.40
2023-03-16T23:10:00.877Z,55.63
2023-03-16T23:15:22.058Z,50.38
2023-03-16T23:20:34.414Z,48.70
2023-03-16T23:25:42.592Z,52.75
2023-03-16T23:30:50.319Z,48.20
2023-03-16T23:35:57.306Z,48.93
2023-03-16T23:41:05.455Z,50.63
2023-03-16T23:46:14.272Z,45.07
2023-03-16T23:51:30.167Z,45.98
2023-03-16T23:56:38.772Z,45.80
